createdAt,value
2019-04-30T00:01:36.163Z,12.27
2019-04-30T00:04:09.434Z,12.22
2019-04-30T00:06:39.675Z,12.22
2019-04-30T00:09:15.144Z,12.24
2019-04-30T00:11:46.088Z,12.27
2019-04-30T00:14:18.145Z,12.30
2019-04-30T00:16:48.279Z,12.23
2019-04-30T00:19:19.813Z,12.22
2019-04-30T00:21:56.876Z,12.04
2019-04-30T00:24:22.859Z,12.05
2019-04-30T00:26:55.028Z,12.10
2019-04-30T00:29:30.177Z,12.15
2019-04-30T00:31:57.762Z,12.10
2019-04-30T00:34:30.873Z,12.19
2019-04-30T00:37:00.347Z,12.11
2019-04-30T00:39:30.467Z,12.18
2019-04-30T00:42:18.636Z,12.06
2019-04-30T00:44:46.545Z,12.20
2019-04-30T00:47:16.551Z,12.02
2019-04-30T00:49:47.220Z,12.08
2019-04-30T00:52:17.381Z,12.21
2019-04-30T00:54:47.401Z,12.27
2019-04-30T00:57:17.966Z,12.28
2019-04-30T00:59:48.152Z,12.29
2019-04-30T01:02:27.633Z,12.39
2019-04-30T01:05:00.167Z,12.44
2019-04-30T01:07:28.020Z,12.38
2019-04-30T01:09:58.008Z,12.40
2019-04-30T01:12:31.701Z,12.41
2019-04-30T01:15:01.664Z,12.43
2019-04-30T01:17:31.547Z,12.45
2019-04-30T01:20:01.700Z,12.45
2019-04-30T01:22:33.078Z,12.42
2019-04-30T01:25:08.988Z,12.48
2019-04-30T01:27:39.458Z,12.48
2019-04-30T01:30:13.444Z,12.46
2019-04-30T01:32:41.249Z,12.44
2019-04-30T01:35:11.487Z,12.51
2019-04-30T01:37:41.491Z,12.52
2019-04-30T01:40:13.870Z,12.53
2019-04-30T01:42:48.668Z,12.44
2019-04-30T01:45:16.182Z,12.43
2019-04-30T01:47:46.308Z,12.26
2019-04-30T01:50:16.735Z,12.35
2019-04-30T01:52:52.670Z,12.29
2019-04-30T01:55:42.341Z,12.22
2019-04-30T01:58:14.045Z,12.25
2019-04-30T02:00:49.342Z,12.33
2019-04-30T02:03:19.547Z,12.31
2019-04-30T02:05:49.935Z,12.34
2019-04-30T02:08:20.211Z,12.31
2019-04-30T02:10:51.345Z,12.29
2019-04-30T02:13:21.597Z,12.23
2019-04-30T02:15:51.631Z,12.18
2019-04-30T02:18:21.685Z,12.19
2019-04-30T02:20:51.825Z,12.23
2019-04-30T02:23:21.817Z,12.30
2019-04-30T02:25:51.896Z,12.24
2019-04-30T02:28:21.893Z,12.26
2019-04-30T02:30:51.925Z,12.40
2019-04-30T02:33:21.941Z,12.47
2019-04-30T02:36:10.309Z,12.51
2019-04-30T02:38:42.128Z,12.42
2019-04-30T02:41:12.668Z,12.43
2019-04-30T02:43:43.622Z,12.44
2019-04-30T02:46:16.034Z,12.36
2019-04-30T02:48:47.360Z,12.48
2019-04-30T02:51:22.674Z,12.49
2019-04-30T02:54:03.537Z,12.48
2019-04-30T02:56:33.610Z,12.44
2019-04-30T02:59:04.106Z,12.52
2019-04-30T03:01:34.162Z,12.36
2019-04-30T03:04:04.154Z,12.41
2019-04-30T03:06:34.216Z,12.50
2019-04-30T03:09:06.071Z,12.47
2019-04-30T03:11:36.392Z,12.43
2019-04-30T03:14:06.409Z,12.25
2019-04-30T03:16:52.709Z,12.20
2019-04-30T03:19:23.430Z,12.29
2019-04-30T03:22:00.119Z,12.27
2019-04-30T03:24:29.697Z,12.21
2019-04-30T03:26:59.667Z,12.09
2019-04-30T03:29:30.234Z,12.12
2019-04-30T03:32:02.551Z,12.15
2019-04-30T03:34:33.290Z,12.15
2019-04-30T03:37:03.512Z,12.20
2019-04-30T03:39:34.088Z,12.17
2019-04-30T03:42:04.456Z,12.17
2019-04-30T03:44:34.464Z,12.13
2019-04-30T03:47:04.597Z,12.22
2019-04-30T03:49:34.591Z,12.21
2019-04-30T03:52:05.756Z,12.25
2019-04-30T03:54:35.737Z,12.24
2019-04-30T03:57:05.763Z,12.29
2019-04-30T03:59:35.819Z,12.26
2019-04-30T04:02:13.469Z,12.20
2019-04-30T04:04:52.165Z,12.30
2019-04-30T04:07:21.591Z,12.41
2019-04-30T04:09:56.382Z,12.34
2019-04-30T04:12:29.989Z,12.41
2019-04-30T04:15:00.737Z,12.54
2019-04-30T04:17:31.617Z,12.65
2019-04-30T04:20:01.925Z,12.67
2019-04-30T04:22:31.915Z,12.68
2019-04-30T04:25:01.937Z,12.61
2019-04-30T04:27:33.165Z,12.62
2019-04-30T04:30:04.148Z,12.67
2019-04-30T04:32:34.473Z,12.76
2019-04-30T04:35:12.204Z,12.74
2019-04-30T04:37:39.436Z,12.72
2019-04-30T04:40:10.561Z,12.86
2019-04-30T04:42:40.582Z,12.77
2019-04-30T04:45:10.732Z,12.87
2019-04-30T04:47:40.754Z,12.88
2019-04-30T04:50:12.524Z,12.90
2019-04-30T04:52:42.528Z,12.94
2019-04-30T04:55:13.108Z,13.01
2019-04-30T04:57:43.166Z,13.03
2019-04-30T05:00:13.978Z,13.09
2019-04-30T05:02:54.153Z,13.09
2019-04-30T05:05:24.169Z,13.13
2019-04-30T05:07:54.184Z,13.15
2019-04-30T05:10:24.240Z,13.13
2019-04-30T05:12:54.227Z,13.14
2019-04-30T05:15:24.254Z,13.20
2019-04-30T05:17:54.273Z,13.22
2019-04-30T05:20:24.285Z,13.23
2019-04-30T05:22:54.303Z,13.26
2019-04-30T05:25:24.374Z,13.21
2019-04-30T05:27:54.378Z,13.20
2019-04-30T05:30:24.569Z,13.22
2019-04-30T05:32:54.557Z,13.14
2019-04-30T05:35:24.564Z,13.24
2019-04-30T05:37:54.627Z,13.07
2019-04-30T05:40:24.644Z,13.16
2019-04-30T05:42:54.706Z,13.24
2019-04-30T05:45:24.710Z,13.20
2019-04-30T05:47:54.841Z,13.19
2019-04-30T05:50:24.911Z,13.22
2019-04-30T05:52:54.955Z,13.33
2019-04-30T05:55:24.941Z,13.37
2019-04-30T05:57:56.510Z,13.42
2019-04-30T06:00:30.306Z,13.61
2019-04-30T06:02:59.460Z,13.71
2019-04-30T06:05:29.729Z,13.73
2019-04-30T06:07:59.730Z,13.78
2019-04-30T06:10:34.151Z,13.78
2019-04-30T06:13:09.472Z,13.82
2019-04-30T06:15:53.678Z,13.97
2019-04-30T06:18:23.783Z,14.02
2019-04-30T06:20:53.858Z,14.08
2019-04-30T06:23:24.064Z,14.18
2019-04-30T06:25:59.592Z,14.27
2019-04-30T06:28:26.499Z,14.35
2019-04-30T06:30:56.781Z,14.36
2019-04-30T06:33:28.989Z,14.35
2019-04-30T06:36:00.205Z,14.42
2019-04-30T06:38:30.346Z,14.26
2019-04-30T06:41:00.423Z,14.45
2019-04-30T06:43:30.666Z,14.55
2019-04-30T06:46:00.867Z,14.79
2019-04-30T06:48:31.797Z,14.79
2019-04-30T06:51:01.978Z,15.04
2019-04-30T06:53:31.962Z,15.36
2019-04-30T06:56:02.027Z,15.28
2019-04-30T06:58:32.030Z,15.49
2019-04-30T07:01:02.064Z,15.61
2019-04-30T07:03:32.067Z,15.76
2019-04-30T07:06:02.064Z,15.79
2019-04-30T07:08:39.522Z,15.82
2019-04-30T07:11:23.055Z,15.83
2019-04-30T07:13:53.250Z,15.90
2019-04-30T07:16:23.325Z,15.99
2019-04-30T07:18:53.357Z,16.06
2019-04-30T07:21:23.406Z,16.18
2019-04-30T07:23:53.419Z,15.95
2019-04-30T07:26:24.754Z,16.01
2019-04-30T07:28:55.512Z,15.98
2019-04-30T07:31:26.704Z,16.33
2019-04-30T07:33:56.753Z,16.30
2019-04-30T07:36:43.459Z,16.38
2019-04-30T07:38:59.866Z,16.43
2019-04-30T07:41:31.293Z,16.40
2019-04-30T07:44:01.517Z,16.43
2019-04-30T07:46:35.193Z,16.51
2019-04-30T07:49:03.286Z,16.33
2019-04-30T07:51:37.610Z,16.68
2019-04-30T07:54:05.091Z,16.52
2019-04-30T07:56:40.881Z,16.42
2019-04-30T07:59:06.851Z,16.93
2019-04-30T08:01:36.931Z,17.18
2019-04-30T08:04:08.913Z,17.32
2019-04-30T08:06:39.930Z,17.83
2019-04-30T08:09:10.936Z,18.16
2019-04-30T08:11:43.428Z,18.41
2019-04-30T08:14:12.813Z,18.49
2019-04-30T08:16:42.884Z,18.74
2019-04-30T08:19:12.956Z,18.72
2019-04-30T08:21:42.956Z,18.69
2019-04-30T08:24:12.941Z,18.92
2019-04-30T08:26:43.087Z,19.25
2019-04-30T08:29:13.096Z,19.07
2019-04-30T08:31:43.155Z,18.42
2019-04-30T08:34:13.164Z,19.46
2019-04-30T08:36:43.220Z,19.69
2019-04-30T08:39:13.201Z,20.18
2019-04-30T08:41:43.274Z,20.32
2019-04-30T08:44:13.309Z,20.46
2019-04-30T08:46:43.487Z,20.02
2019-04-30T08:49:13.735Z,20.04
2019-04-30T08:51:44.073Z,19.58
2019-04-30T08:54:14.221Z,19.62
2019-04-30T08:56:44.246Z,19.73
2019-04-30T08:59:14.278Z,19.97
2019-04-30T09:01:44.338Z,20.18
2019-04-30T09:04:14.409Z,20.10
2019-04-30T09:06:44.400Z,20.37
2019-04-30T09:09:16.050Z,20.14
2019-04-30T09:11:53.116Z,20.29
2019-04-30T09:14:18.677Z,20.16
2019-04-30T09:16:49.528Z,20.23
2019-04-30T09:19:21.295Z,20.49
2019-04-30T09:21:51.427Z,20.86
2019-04-30T09:24:21.447Z,20.79
2019-04-30T09:26:51.441Z,21.23
2019-04-30T09:29:21.500Z,21.75
2019-04-30T09:31:51.570Z,21.36
2019-04-30T09:34:21.592Z,21.74
2019-04-30T09:36:51.601Z,21.76
2019-04-30T09:39:23.118Z,22.08
2019-04-30T09:41:53.300Z,22.22
2019-04-30T09:44:23.297Z,22.77
2019-04-30T09:46:53.427Z,23.11
2019-04-30T09:49:23.426Z,22.93
2019-04-30T09:51:53.629Z,21.92
2019-04-30T09:54:24.473Z,22.84
2019-04-30T09:56:54.785Z,23.30
2019-04-30T09:59:24.784Z,23.59
2019-04-30T10:01:54.837Z,23.39
2019-04-30T10:04:26.408Z,23.77
2019-04-30T10:06:56.971Z,24.17
2019-04-30T10:09:27.046Z,23.70
2019-04-30T10:11:59.554Z,23.24
2019-04-30T10:14:29.716Z,22.80
2019-04-30T10:17:01.403Z,24.24
2019-04-30T10:19:31.426Z,24.37
2019-04-30T10:22:01.541Z,24.72
2019-04-30T10:24:31.541Z,24.81
2019-04-30T10:27:02.313Z,24.70
2019-04-30T10:29:32.369Z,24.88
2019-04-30T10:32:03.514Z,24.18
2019-04-30T10:34:33.505Z,24.55
2019-04-30T10:37:03.609Z,23.48
2019-04-30T10:39:33.758Z,22.66
2019-04-30T10:42:04.330Z,23.59
2019-04-30T10:44:34.338Z,23.38
2019-04-30T10:47:04.523Z,25.06
2019-04-30T10:49:35.681Z,25.45
2019-04-30T10:52:06.092Z,25.64
2019-04-30T10:54:36.121Z,25.85
2019-04-30T10:57:06.267Z,25.66
2019-04-30T10:59:36.277Z,26.37
2019-04-30T11:02:08.940Z,26.52
2019-04-30T11:04:38.599Z,26.93
2019-04-30T11:07:08.871Z,26.61
2019-04-30T11:09:39.324Z,26.45
2019-04-30T11:12:09.711Z,26.81
2019-04-30T11:14:39.852Z,26.84
2019-04-30T11:17:10.136Z,26.79
2019-04-30T11:19:41.706Z,26.03
2019-04-30T11:22:12.034Z,26.51
2019-04-30T11:24:56.614Z,25.94
2019-04-30T11:27:14.467Z,25.78
2019-04-30T11:29:45.354Z,26.86
2019-04-30T11:32:17.421Z,27.16
2019-04-30T11:34:47.741Z,27.61
2019-04-30T11:37:18.772Z,27.43
2019-04-30T11:39:49.004Z,27.05
2019-04-30T11:42:19.165Z,27.56
2019-04-30T11:44:49.232Z,27.93
2019-04-30T11:47:24.774Z,27.71
2019-04-30T11:49:56.422Z,27.70
2019-04-30T11:52:26.416Z,27.86
2019-04-30T11:54:56.451Z,27.02
2019-04-30T11:57:26.520Z,27.17
2019-04-30T11:59:56.564Z,28.25
2019-04-30T12:02:29.344Z,28.11
2019-04-30T12:05:00.761Z,27.97
2019-04-30T12:07:35.454Z,28.45
2019-04-30T12:10:09.468Z,26.79
2019-04-30T12:12:39.536Z,27.41
2019-04-30T12:15:09.882Z,27.20
2019-04-30T12:17:40.999Z,27.20
2019-04-30T12:20:11.932Z,28.26
2019-04-30T12:22:41.947Z,28.81
2019-04-30T12:25:12.181Z,28.71
2019-04-30T12:27:42.454Z,28.35
2019-04-30T12:30:14.284Z,28.32
2019-04-30T12:32:44.299Z,28.72
2019-04-30T12:35:14.743Z,26.87
2019-04-30T12:37:44.734Z,28.10
2019-04-30T12:40:28.579Z,27.75
2019-04-30T12:42:48.211Z,26.94
2019-04-30T12:45:19.462Z,27.97
2019-04-30T12:47:52.343Z,28.68
2019-04-30T12:50:36.381Z,28.71
2019-04-30T12:53:26.294Z,26.05
2019-04-30T12:56:01.541Z,26.05
2019-04-30T12:58:31.740Z,27.99
2019-04-30T13:01:01.789Z,27.96
2019-04-30T13:03:31.803Z,27.52
2019-04-30T13:06:02.748Z,27.83
2019-04-30T13:08:33.820Z,28.12
2019-04-30T13:11:05.073Z,28.23
2019-04-30T13:13:36.423Z,27.62
2019-04-30T13:16:08.551Z,27.70
2019-04-30T13:18:39.368Z,27.52
2019-04-30T13:21:09.529Z,27.83
2019-04-30T13:23:39.539Z,27.21
2019-04-30T13:26:09.580Z,27.35
2019-04-30T13:28:44.176Z,27.10
2019-04-30T13:31:14.315Z,27.17
2019-04-30T13:33:46.462Z,27.12
2019-04-30T13:36:17.080Z,26.65
2019-04-30T13:38:51.760Z,26.04
2019-04-30T13:41:31.363Z,26.04
2019-04-30T13:44:02.530Z,26.20
2019-04-30T13:46:32.685Z,24.98
2019-04-30T13:49:02.761Z,25.49
2019-04-30T13:51:32.849Z,25.75
2019-04-30T13:54:02.990Z,25.47
2019-04-30T13:56:33.035Z,25.01
2019-04-30T13:59:04.344Z,25.36
2019-04-30T14:01:34.363Z,24.89
2019-04-30T14:04:15.310Z,25.36
2019-04-30T14:06:55.754Z,25.31
2019-04-30T14:09:27.393Z,25.22
2019-04-30T14:11:58.660Z,24.82
2019-04-30T14:14:29.648Z,25.00
2019-04-30T14:17:01.240Z,24.97
2019-04-30T14:19:31.438Z,24.81
2019-04-30T14:22:01.596Z,24.51
2019-04-30T14:24:31.593Z,23.64
2019-04-30T14:27:01.657Z,24.34
2019-04-30T14:29:31.644Z,24.28
2019-04-30T14:32:01.635Z,24.35
2019-04-30T14:34:32.773Z,24.02
2019-04-30T14:37:02.826Z,23.62
2019-04-30T14:39:33.144Z,22.90
2019-04-30T14:42:04.112Z,23.77
2019-04-30T14:44:36.856Z,24.49
2019-04-30T14:47:15.071Z,24.74
2019-04-30T14:49:59.160Z,24.84
2019-04-30T14:52:19.326Z,24.29
2019-04-30T14:55:06.072Z,24.45
2019-04-30T14:57:53.674Z,24.71
2019-04-30T15:00:34.591Z,24.43
2019-04-30T15:03:15.925Z,23.81
2019-04-30T15:05:50.907Z,23.58
2019-04-30T15:08:19.399Z,23.38
2019-04-30T15:10:49.639Z,23.95
2019-04-30T15:13:19.890Z,23.03
2019-04-30T15:15:50.620Z,23.15
2019-04-30T15:18:20.599Z,22.77
2019-04-30T15:20:50.680Z,23.11
2019-04-30T15:23:28.453Z,23.25
2019-04-30T15:25:58.708Z,23.26
2019-04-30T15:28:32.444Z,23.26
2019-04-30T15:31:00.671Z,23.32
2019-04-30T15:33:35.060Z,23.07
2019-04-30T15:36:05.965Z,23.05
2019-04-30T15:38:55.465Z,23.02
2019-04-30T15:41:25.456Z,22.39
2019-04-30T15:43:55.594Z,22.57
2019-04-30T15:46:26.801Z,22.57
2019-04-30T15:48:56.789Z,22.42
2019-04-30T15:51:26.860Z,22.67
2019-04-30T15:53:56.846Z,22.83
2019-04-30T15:56:35.179Z,22.60
2019-04-30T15:59:16.756Z,22.24
2019-04-30T16:01:51.360Z,22.49
2019-04-30T16:04:38.547Z,22.01
2019-04-30T16:07:08.588Z,21.98
2019-04-30T16:09:58.469Z,21.95
2019-04-30T16:12:30.352Z,21.75
2019-04-30T16:15:00.381Z,21.22
2019-04-30T16:17:30.500Z,21.51
2019-04-30T16:20:00.520Z,21.51
2019-04-30T16:22:30.584Z,21.55
2019-04-30T16:25:00.785Z,21.36
2019-04-30T16:27:30.796Z,21.11
2019-04-30T16:30:00.811Z,21.19
2019-04-30T16:32:32.469Z,21.17
2019-04-30T16:35:02.532Z,21.03
2019-04-30T16:37:32.524Z,20.92
2019-04-30T16:40:02.582Z,20.97
2019-04-30T16:42:32.717Z,20.86
2019-04-30T16:45:02.868Z,20.44
2019-04-30T16:47:34.104Z,20.58
2019-04-30T16:50:09.010Z,20.70
2019-04-30T16:52:39.503Z,20.73
2019-04-30T16:55:09.815Z,20.53
2019-04-30T16:57:41.269Z,20.40
2019-04-30T17:00:13.697Z,20.50
2019-04-30T17:02:45.347Z,20.38
2019-04-30T17:05:19.834Z,20.49
2019-04-30T17:07:51.307Z,20.53
2019-04-30T17:10:23.011Z,20.37
2019-04-30T17:12:59.167Z,20.48
2019-04-30T17:15:36.240Z,20.41
2019-04-30T17:18:09.835Z,20.32
2019-04-30T17:20:38.682Z,20.14
2019-04-30T17:23:09.449Z,20.15
2019-04-30T17:25:39.697Z,20.17
2019-04-30T17:28:09.685Z,20.07
2019-04-30T17:30:39.745Z,19.90
2019-04-30T17:33:09.841Z,20.03
2019-04-30T17:35:39.849Z,20.12
2019-04-30T17:38:09.898Z,20.11
2019-04-30T17:40:41.428Z,19.94
2019-04-30T17:43:11.435Z,19.94
2019-04-30T17:45:41.487Z,19.93
2019-04-30T17:48:11.470Z,19.72
2019-04-30T17:50:41.534Z,19.75
2019-04-30T17:53:11.520Z,19.86
2019-04-30T17:55:41.584Z,19.78
2019-04-30T17:58:11.642Z,19.79
2019-04-30T18:00:43.443Z,19.63
2019-04-30T18:03:13.595Z,19.40
2019-04-30T18:05:43.755Z,19.39
2019-04-30T18:08:13.731Z,19.44
2019-04-30T18:10:44.390Z,19.47
2019-04-30T18:13:14.459Z,19.35
2019-04-30T18:15:44.474Z,19.15
2019-04-30T18:18:16.171Z,19.03
2019-04-30T18:20:50.750Z,19.02
2019-04-30T18:23:39.242Z,19.01
2019-04-30T18:26:13.980Z,18.95
2019-04-30T18:28:44.114Z,18.71
2019-04-30T18:31:14.288Z,18.40
2019-04-30T18:33:44.467Z,18.42
2019-04-30T18:36:14.656Z,18.26
2019-04-30T18:38:44.657Z,18.19
2019-04-30T18:41:14.747Z,18.14
2019-04-30T18:43:44.739Z,18.15
2019-04-30T18:46:14.725Z,18.14
2019-04-30T18:48:44.783Z,18.08
2019-04-30T18:51:30.616Z,17.98
2019-04-30T18:53:47.121Z,17.96
2019-04-30T18:56:19.160Z,17.71
2019-04-30T18:58:49.374Z,17.78
2019-04-30T19:01:19.433Z,17.76
2019-04-30T19:03:49.432Z,17.70
2019-04-30T19:06:26.159Z,17.52
2019-04-30T19:09:01.216Z,17.43
2019-04-30T19:11:34.515Z,17.40
2019-04-30T19:14:06.287Z,17.20
2019-04-30T19:16:56.475Z,17.09
2019-04-30T19:19:34.780Z,17.02
2019-04-30T19:22:05.053Z,16.99
2019-04-30T19:24:35.157Z,16.86
2019-04-30T19:27:05.481Z,16.80
2019-04-30T19:29:35.636Z,16.59
2019-04-30T19:32:05.741Z,16.46
2019-04-30T19:34:35.749Z,16.46
2019-04-30T19:37:05.781Z,16.36
2019-04-30T19:39:35.791Z,16.20
2019-04-30T19:42:05.997Z,16.13
2019-04-30T19:44:36.381Z,16.13
2019-04-30T19:47:06.445Z,16.01
2019-04-30T19:49:36.462Z,16.03
2019-04-30T19:52:11.094Z,15.87
2019-04-30T19:54:40.218Z,15.88
2019-04-30T19:57:10.354Z,15.71
2019-04-30T19:59:40.385Z,15.80
2019-04-30T20:02:10.747Z,15.82
2019-04-30T20:04:42.357Z,15.45
2019-04-30T20:07:12.371Z,15.00
2019-04-30T20:09:43.173Z,15.34
2019-04-30T20:12:14.382Z,15.32
2019-04-30T20:14:44.476Z,15.29
2019-04-30T20:17:14.471Z,15.35
2019-04-30T20:19:44.561Z,15.30
2019-04-30T20:22:14.755Z,15.24
2019-04-30T20:24:45.028Z,15.16
2019-04-30T20:27:15.120Z,15.14
2019-04-30T20:29:45.263Z,15.16
2019-04-30T20:32:15.394Z,15.22
2019-04-30T20:34:45.416Z,15.09
2019-04-30T20:37:15.426Z,15.10
2019-04-30T20:39:49.279Z,15.00
2019-04-30T20:42:18.787Z,15.15
2019-04-30T20:44:49.053Z,15.21
2019-04-30T20:47:21.094Z,14.98
2019-04-30T20:49:50.852Z,15.05
2019-04-30T20:52:20.875Z,15.16
2019-04-30T20:54:50.993Z,15.06
2019-04-30T20:57:21.140Z,15.21
2019-04-30T20:59:51.310Z,15.26
2019-04-30T21:02:21.405Z,15.25
2019-04-30T21:04:52.474Z,15.35
2019-04-30T21:07:22.613Z,15.33
2019-04-30T21:09:54.215Z,15.31
2019-04-30T21:12:24.241Z,15.56
2019-04-30T21:14:54.317Z,15.34
2019-04-30T21:17:24.391Z,15.32
2019-04-30T21:19:54.481Z,15.52
2019-04-30T21:22:24.635Z,15.45
2019-04-30T21:24:54.746Z,15.31
2019-04-30T21:27:25.627Z,15.36
2019-04-30T21:29:55.639Z,15.45
2019-04-30T21:32:43.868Z,15.44
2019-04-30T21:35:24.703Z,15.55
2019-04-30T21:38:01.721Z,15.40
2019-04-30T21:40:30.963Z,15.58
2019-04-30T21:43:11.079Z,15.52
2019-04-30T21:45:41.396Z,15.46
2019-04-30T21:48:11.451Z,15.46
2019-04-30T21:50:41.561Z,15.48
2019-04-30T21:53:11.709Z,15.44
2019-04-30T21:55:41.816Z,15.36
2019-04-30T21:58:11.931Z,15.40
2019-04-30T22:00:43.643Z,15.33
2019-04-30T22:03:15.331Z,15.27
2019-04-30T22:05:45.570Z,15.24
2019-04-30T22:08:15.598Z,15.33
2019-04-30T22:10:45.663Z,15.20
2019-04-30T22:13:15.716Z,15.24
2019-04-30T22:15:45.728Z,15.26
2019-04-30T22:18:15.782Z,14.84
2019-04-30T22:20:45.863Z,14.91
2019-04-30T22:23:15.920Z,14.96
2019-04-30T22:25:46.019Z,14.97
2019-04-30T22:28:16.094Z,14.99
2019-04-30T22:30:46.265Z,14.91
2019-04-30T22:33:16.380Z,14.74
2019-04-30T22:35:54.112Z,14.80
2019-04-30T22:38:34.672Z,14.69
2019-04-30T22:41:04.976Z,14.71
2019-04-30T22:43:35.124Z,14.78
2019-04-30T22:46:06.942Z,14.73
2019-04-30T22:48:36.987Z,14.65
2019-04-30T22:51:07.104Z,14.68
2019-04-30T22:53:37.410Z,14.72
2019-04-30T22:56:07.507Z,14.65
2019-04-30T22:58:37.573Z,14.61
2019-04-30T23:01:13.060Z,14.58
2019-04-30T23:03:43.157Z,14.59
2019-04-30T23:06:13.408Z,14.47
2019-04-30T23:08:43.449Z,14.45
2019-04-30T23:11:13.699Z,14.51
2019-04-30T23:13:43.823Z,14.38
2019-04-30T23:16:14.177Z,14.26
2019-04-30T23:18:44.281Z,14.17
2019-04-30T23:21:14.323Z,14.31
2019-04-30T23:23:44.391Z,14.14
2019-04-30T23:26:14.402Z,14.21
2019-04-30T23:28:44.458Z,14.08
2019-04-30T23:31:14.450Z,13.98
2019-04-30T23:33:44.564Z,13.82
2019-04-30T23:36:14.665Z,13.80
2019-04-30T23:38:44.677Z,13.62
2019-04-30T23:41:14.692Z,13.53
2019-04-30T23:43:44.884Z,13.57
2019-04-30T23:46:14.947Z,13.55
2019-04-30T23:48:44.941Z,13.29
2019-04-30T23:51:14.971Z,13.19
2019-04-30T23:53:45.077Z,13.29
2019-04-30T23:56:15.073Z,13.21
2019-04-30T23:58:45.090Z,13.11
